LFRS Airport Information

Runway Information
Runway 03 Length 9514 ft width 148 ft
Elevation 73 ft Threshold 0 ft Heading 28
Runway 21 Length 9514 ft Width 148 ft
Elevation 86 ft Threshold 694 ft Heading 208
Airport Frequencies
Type APP Name APP Frequency 130.275 MHZ
Type ATIS Name ATIS Frequency 126.925 MHZ
Type GND Name GND Frequency 121.875 MHZ
Type INFO Name INFO Frequency 129.875 MHZ
Type TWR Name TWR Frequency 118.65 MHZ
Airport Navaids
Type NDB Name Nantes Frequency 369 KHZ
Type VOR-DME Name Nantes Frequency 115500 KHZ
Airport Weather Information & NOTAM
ADDS - METARS form results

(1132 UTC 17 July 2018)
 
METAR text: LFRS 171100Z AUTO 25005KT 170V340 9999 FEW040 SCT056 23/14 Q1019 NOSIG
Conditions at: LFRS (NANTES/CHATEAU B, FR) observed 1100 UTC 17 July 2018
Temperature: 23.0°C (73°F)
Dewpoint: 14.0°C (57°F) [RH = 57%]
Pressure (altimeter): 30.09 inches Hg (1019.0 mb)
Winds: from the WSW (250 degrees) at 6 MPH (5 knots; 2.6 m/s)
Visibility: 6 or more miles (10+ km)
Ceiling: at least 12,000 feet AGL
Clouds: few clouds at 4000 feet AGL
scattered clouds at 5600 feet AGL
Weather: no significant weather observed at this time